Time;durP1;ratioP1;P1;durP2;ratioP2;P2;SDS_P1;SDS_P2;PMS_P1;PMS_P2;Temp;Humidity;BMP_temperature;BMP_pressure;BME280_temperature;BME280_humidity;BME280_pressure;Samples;Min_cycle;Max_cycle;Signal;HPM_P1;HPM_P2
2022/05/23 00:01:44;;;;;;;9.90;3.55;;;;;;;25.08;95.91;100686.75;5025226;28;20162;-53
2022/05/23 00:04:10;;;;;;;8.50;2.75;;;;;;;24.88;97.18;100673.13;5024391;28;20046;-55
2022/05/23 00:06:36;;;;;;;;;;;;;;;24.77;98.53;100666.16;5017158;28;20046;-56
2022/05/23 00:09:01;;;;;;;7.87;2.70;;;;;;;24.57;100.00;100675.44;5029923;28;19939;-55
2022/05/23 00:11:27;;;;;;;10.50;3.10;;;;;;;24.61;100.00;100662.81;5026840;28;20073;-54
2022/05/23 00:13:52;;;;;;;8.95;2.80;;;;;;;24.56;100.00;100665.63;5029047;28;20049;-51
2022/05/23 00:16:20;;;;;;;14.52;3.42;;;;;;;24.33;100.00;100673.56;5029032;28;20042;-54
2022/05/23 00:18:46;;;;;;;9.60;2.97;;;;;;;24.34;100.00;100653.34;5017559;28;20038;-53
2022/05/23 00:21:12;;;;;;;7.90;2.65;;;;;;;24.28;100.00;100654.50;5025798;28;20045;-53
2022/05/23 00:23:40;;;;;;;6.10;2.70;;;;;;;24.30;100.00;100639.44;5027875;28;20041;-55
2022/05/23 00:26:06;;;;;;;9.90;3.92;;;;;;;24.29;100.00;100637.00;5026944;28;20042;-54
2022/05/23 00:28:31;;;;;;;11.48;3.28;;;;;;;24.34;100.00;100629.56;5024420;28;20043;-52
2022/05/23 00:30:57;;;;;;;6.88;3.28;;;;;;;24.04;100.00;100628.03;5012785;28;20042;-53
2022/05/23 00:36:07;;;;;;;7.17;3.30;;;;;;;23.84;100.00;100618.94;5006028;28;20068;-56
2022/05/23 00:38:33;;;;;;;10.85;3.60;;;;;;;23.84;100.00;100610.75;5003144;28;20060;-55
2022/05/23 00:44:00;;;;;;;7.50;3.10;;;;;;;24.69;100.00;100593.81;5012559;28;20110;-54
2022/05/23 00:46:26;;;;;;;6.93;2.80;;;;;;;24.51;100.00;100600.91;5004522;28;20035;-55
2022/05/23 00:48:52;;;;;;;6.40;3.47;;;;;;;24.23;100.00;100594.47;5008702;28;20037;-58
2022/05/23 00:51:18;;;;;;;8.45;2.85;;;;;;;23.75;100.00;100593.38;5011974;28;20034;-56
2022/05/23 00:53:52;;;;;;;;;;;;;;;23.66;100.00;100589.66;5003515;28;20103;-54
2022/05/23 00:56:21;;;;;;;9.33;3.10;;;;;;;23.61;100.00;100593.25;5008523;28;19914;-55
2022/05/23 00:58:51;;;;;;;6.63;3.30;;;;;;;23.43;100.00;100575.72;5003492;28;20113;-57
2022/05/23 01:01:30;;;;;;;7.27;3.47;;;;;;;23.39;100.00;100580.91;5001044;28;20049;-56
2022/05/23 01:03:56;;;;;;;10.57;3.10;;;;;;;23.63;100.00;100589.13;5003951;28;20050;-55
2022/05/23 01:06:21;;;;;;;5.97;2.42;;;;;;;23.60;100.00;100587.00;5001146;28;20035;-50
2022/05/23 01:08:50;;;;;;;10.97;3.13;;;;;;;23.59;100.00;100584.53;5007571;28;20027;-56
2022/05/23 01:11:18;;;;;;;6.40;2.70;;;;;;;23.69;100.00;100594.53;5006933;28;20057;-53
2022/05/23 01:13:43;;;;;;;6.83;2.90;;;;;;;23.85;100.00;100590.53;5002575;28;20042;-51
2022/05/23 01:16:09;;;;;;;7.88;2.53;;;;;;;23.53;100.00;100585.72;5007167;28;20035;-56
2022/05/23 01:18:41;;;;;;;7.83;2.80;;;;;;;23.28;100.00;100580.22;4996528;28;20042;-57
2022/05/23 01:21:18;;;;;;;7.28;3.35;;;;;;;23.07;100.00;100579.56;5006314;28;20082;-54
2022/05/23 01:23:51;;;;;;;7.50;2.53;;;;;;;23.14;100.00;100573.78;5002209;28;20043;-56
2022/05/23 01:26:22;;;;;;;9.33;2.87;;;;;;;22.89;100.00;100584.63;5008455;28;20111;-54
2022/05/23 01:28:51;;;;;;;8.23;2.97;;;;;;;23.11;100.00;100585.28;5002918;28;20051;-54
2022/05/23 01:31:43;;;;;;;7.77;2.70;;;;;;;23.06;100.00;100581.47;5001395;28;20104;-51
2022/05/23 01:34:21;;;;;;;5.30;2.60;;;;;;;23.12;100.00;100586.91;5000635;28;20061;-54
2022/05/23 01:37:00;;;;;;;7.87;2.20;;;;;;;23.01;100.00;100584.25;5008852;28;20054;-51
2022/05/23 01:39:28;;;;;;;7.10;3.57;;;;;;;23.22;100.00;100577.81;5004851;28;20064;-55
2022/05/23 01:41:54;;;;;;;8.20;2.80;;;;;;;23.22;100.00;100581.34;5003244;28;20038;-57
2022/05/23 01:44:21;;;;;;;9.07;3.30;;;;;;;23.02;100.00;100579.63;4996980;28;20038;-52
2022/05/23 01:47:26;;;;;;;10.90;3.10;;;;;;;22.67;100.00;100576.06;5010386;28;20046;-54
2022/05/23 01:49:56;;;;;;;9.63;3.20;;;;;;;22.66;100.00;100580.72;5007572;28;20061;-55
2022/05/23 01:52:35;;;;;;;10.53;3.13;;;;;;;22.75;100.00;100584.44;5000100;28;20058;-54
2022/05/23 01:55:08;;;;;;;8.70;3.10;;;;;;;22.82;100.00;100583.31;4993434;28;20033;-51
2022/05/23 01:57:35;;;;;;;6.40;2.97;;;;;;;22.55;100.00;100585.41;4998456;28;20089;-55
2022/05/23 02:02:47;;;;;;;8.47;2.97;;;;;;;22.33;100.00;100583.06;5009032;28;20042;-51
2022/05/23 02:05:16;;;;;;;7.43;3.47;;;;;;;22.31;100.00;100572.47;4998582;28;20050;-55
2022/05/23 02:07:43;;;;;;;17.83;3.60;;;;;;;22.32;100.00;100570.53;5011459;28;20272;-52
2022/05/23 02:10:10;;;;;;;9.63;4.18;;;;;;;22.38;100.00;100574.88;4999680;28;20049;-52
2022/05/23 02:12:41;;;;;;;7.40;2.83;;;;;;;22.50;100.00;100566.38;5010309;28;20034;-55
2022/05/23 02:15:11;;;;;;;8.63;3.40;;;;;;;22.44;100.00;100568.28;4999807;28;20035;-54
2022/05/23 02:18:00;;;;;;;9.13;3.20;;;;;;;23.28;100.00;100576.69;4993722;28;20291;-51
2022/05/23 02:20:27;;;;;;;5.43;2.93;;;;;;;22.69;100.00;100557.50;5005394;28;20651;-54
2022/05/23 02:22:54;;;;;;;11.70;3.20;;;;;;;22.39;100.00;100565.59;5008231;28;20264;-55
2022/05/23 02:25:22;;;;;;;8.80;3.10;;;;;;;22.32;100.00;100548.75;5004494;28;20280;-55
2022/05/23 02:27:48;;;;;;;9.67;3.50;;;;;;;22.39;100.00;100553.88;5000666;28;20277;-53
2022/05/23 02:30:15;;;;;;;10.33;3.37;;;;;;;22.35;100.00;100548.16;5000415;28;20292;-53
2022/05/23 02:32:41;;;;;;;;;;;;;;;22.40;100.00;100544.63;4996942;28;20310;-53
2022/05/23 02:35:10;;;;;;;8.80;3.73;;;;;;;22.46;100.00;100548.91;5009209;28;19925;-54
2022/05/23 02:37:37;;;;;;;6.68;3.33;;;;;;;22.50;100.00;100539.13;5000230;28;20294;-52
2022/05/23 02:40:05;;;;;;;9.97;3.70;;;;;;;22.48;100.00;100535.84;5003882;28;20041;-57
2022/05/23 02:42:31;;;;;;;13.20;3.27;;;;;;;22.63;100.00;100527.56;5006463;28;20268;-54
2022/05/23 02:45:00;;;;;;;10.30;3.50;;;;;;;22.50;100.00;100525.50;4996246;28;20046;-53
2022/05/23 02:47:28;;;;;;;8.97;3.50;;;;;;;22.42;100.00;100526.06;4999350;28;20272;-54
2022/05/23 02:49:59;;;;;;;8.90;3.43;;;;;;;22.59;100.00;100525.69;4999316;28;20299;-56
2022/05/23 02:52:39;;;;;;;11.93;3.23;;;;;;;23.21;100.00;100525.16;4998597;28;20288;-55
2022/05/23 02:55:13;;;;;;;7.90;3.20;;;;;;;23.31;100.00;100522.38;5003361;28;20304;-53
2022/05/23 02:57:39;;;;;;;7.13;3.63;;;;;;;22.80;100.00;100515.47;5001960;28;20034;-54
2022/05/23 03:00:14;;;;;;;7.60;3.33;;;;;;;22.87;100.00;100504.22;5004790;28;20026;-49
2022/05/23 03:05:36;;;;;;;6.20;3.53;;;;;;;22.62;100.00;100493.25;5005667;28;20046;-56
2022/05/23 03:08:02;;;;;;;7.27;3.47;;;;;;;22.60;100.00;100481.00;5008262;28;20049;-56
2022/05/23 03:10:29;;;;;;;9.40;3.20;;;;;;;22.48;100.00;100475.91;4998695;28;20049;-53
2022/05/23 03:12:54;;;;;;;11.10;3.80;;;;;;;22.30;100.00;100461.06;4993254;28;20086;-57
2022/05/23 03:15:21;;;;;;;13.52;3.90;;;;;;;22.29;100.00;100456.69;4997978;28;20105;-54
2022/05/23 03:17:47;;;;;;;8.23;3.07;;;;;;;23.15;100.00;100452.69;5000227;28;20034;-53
2022/05/23 03:20:14;;;;;;;7.40;3.35;;;;;;;22.57;100.00;100451.59;5005147;28;20073;-52
2022/05/23 03:28:12;;;;;;;8.33;3.80;;;;;;;22.33;100.00;100419.63;5000421;28;20055;-55
2022/05/23 03:30:38;;;;;;;7.47;3.78;;;;;;;22.35;100.00;100417.44;5010543;28;20057;-54
2022/05/23 03:33:04;;;;;;;11.20;3.40;;;;;;;22.18;100.00;100415.94;5029344;28;20026;-56
2022/05/23 03:35:31;;;;;;;9.38;3.72;;;;;;;22.13;100.00;100413.22;4991462;28;20043;-53
2022/05/23 03:37:59;;;;;;;9.50;4.20;;;;;;;22.40;100.00;100409.22;5013500;28;20038;-53
2022/05/23 03:40:28;;;;;;;8.30;4.13;;;;;;;21.91;100.00;100402.78;4998088;28;20306;-53
2022/05/23 03:42:56;;;;;;;10.37;4.77;;;;;;;21.80;100.00;100402.03;4995031;28;20323;-56
2022/05/23 03:45:24;;;;;;;12.77;5.28;;;;;;;21.79;100.00;100400.41;5002101;28;20030;-53
2022/05/23 03:47:51;;;;;;;8.20;4.27;;;;;;;21.67;100.00;100391.78;5004621;28;20085;-55
2022/05/23 03:50:19;;;;;;;11.53;4.87;;;;;;;21.60;100.00;100401.03;4999819;28;20276;-55
2022/05/23 03:52:45;;;;;;;16.17;5.23;;;;;;;21.65;100.00;100389.34;5002198;28;20288;-55
2022/05/23 03:55:20;;;;;;;9.27;4.83;;;;;;;21.63;100.00;100383.34;5009572;28;20272;-52
2022/05/23 03:57:52;;;;;;;9.63;4.77;;;;;;;21.78;100.00;100387.91;5027164;28;20479;-54
2022/05/23 04:00:19;;;;;;;10.77;4.63;;;;;;;21.57;100.00;100382.56;5021188;28;20345;-52
2022/05/23 04:02:51;;;;;;;13.90;4.63;;;;;;;21.60;100.00;100381.19;5001748;28;20271;-52
2022/05/23 04:05:17;;;;;;;14.20;4.80;;;;;;;21.61;100.00;100370.00;5006995;28;20272;-56
2022/05/23 04:08:02;;;;;;;11.20;4.60;;;;;;;21.56;100.00;100361.88;5014309;28;20271;-54
2022/05/23 04:10:35;;;;;;;8.10;4.40;;;;;;;21.55;100.00;100371.13;5014032;28;20276;-55
2022/05/23 04:13:03;;;;;;;12.47;5.13;;;;;;;21.48;100.00;100367.94;5015495;28;20303;-57
2022/05/23 04:15:31;;;;;;;12.87;4.70;;;;;;;21.44;100.00;100367.66;5008550;28;20288;-55
2022/05/23 04:17:57;;;;;;;13.37;6.27;;;;;;;21.61;100.00;100364.56;5008179;28;20290;-56
2022/05/23 04:20:24;;;;;;;9.00;5.63;;;;;;;21.63;100.00;100365.09;5018838;28;20280;-57
2022/05/23 04:23:02;;;;;;;22.70;9.20;;;;;;;21.90;100.00;100361.13;5014556;28;20058;-56
2022/05/23 04:25:28;;;;;;;10.60;5.63;;;;;;;22.11;100.00;100369.16;5012824;28;20267;-57
2022/05/23 04:27:55;;;;;;;19.40;6.90;;;;;;;22.26;100.00;100368.22;5012494;28;20268;-58
2022/05/23 04:30:21;;;;;;;19.50;7.80;;;;;;;22.23;100.00;100363.31;5009124;28;20293;-57
2022/05/23 04:35:35;;;;;;;25.33;11.25;;;;;;;22.18;100.00;100355.22;5007260;28;20049;-58
2022/05/23 04:38:01;;;;;;;39.37;16.40;;;;;;;22.14;100.00;100351.44;5012435;28;20077;-57
2022/05/23 04:40:34;;;;;;;21.23;8.63;;;;;;;22.45;100.00;100345.69;5012862;28;20272;-55
2022/05/23 04:43:01;;;;;;;18.47;8.97;;;;;;;22.44;100.00;100339.44;5000247;28;20265;-56
2022/05/23 04:45:28;;;;;;;25.33;9.95;;;;;;;22.19;100.00;100354.94;5029585;28;20295;-56
2022/05/23 04:51:16;;;;;;;14.03;7.43;;;;;;;22.30;100.00;100343.94;5011785;28;20042;-56
2022/05/23 04:53:46;;;;;;;19.27;8.30;;;;;;;22.57;100.00;100339.88;5008815;28;20034;-57
2022/05/23 04:56:22;;;;;;;9.30;5.30;;;;;;;22.58;100.00;100338.78;5006533;28;20038;-53
2022/05/23 04:58:53;;;;;;;10.23;4.93;;;;;;;22.78;100.00;100338.56;4994258;28;20039;-55
2022/05/23 05:01:21;;;;;;;10.18;4.95;;;;;;;22.58;100.00;100336.06;4999581;28;20038;-57
2022/05/23 05:03:48;;;;;;;12.03;5.23;;;;;;;22.91;100.00;100330.78;5004914;28;20043;-56
2022/05/23 05:06:14;;;;;;;12.07;5.57;;;;;;;23.06;100.00;100327.06;4999399;28;20038;-57
2022/05/23 05:08:39;;;;;;;13.95;5.88;;;;;;;23.08;100.00;100324.06;4987029;28;20107;-58
2022/05/23 05:11:05;;;;;;;13.55;5.53;;;;;;;23.08;100.00;100313.16;5009319;28;20052;-55
2022/05/23 05:13:36;;;;;;;13.25;4.68;;;;;;;23.18;100.00;100313.00;5006281;28;20106;-58
2022/05/23 05:16:04;;;;;;;8.30;5.67;;;;;;;23.19;100.00;100309.16;5000914;28;20030;-58
2022/05/23 05:18:34;;;;;;;9.60;5.20;;;;;;;23.10;100.00;100305.47;5008404;28;20627;-58
2022/05/23 05:21:16;;;;;;;10.43;4.63;;;;;;;23.32;100.00;100302.19;5023223;28;20033;-57
2022/05/23 05:24:00;;;;;;;13.40;5.73;;;;;;;23.20;100.00;100303.44;5001591;28;20053;-57
2022/05/23 05:26:29;;;;;;;12.80;5.20;;;;;;;23.21;100.00;100298.78;4993293;28;20037;-58
2022/05/23 05:28:55;;;;;;;13.32;5.63;;;;;;;23.30;100.00;100294.31;5011167;28;20034;-57
2022/05/23 05:31:48;;;;;;;11.10;4.97;;;;;;;23.34;100.00;100289.91;5005089;28;20049;-58
2022/05/23 05:34:16;;;;;;;17.33;5.70;;;;;;;23.29;100.00;100287.22;5011417;28;20039;-56
2022/05/23 05:36:46;;;;;;;12.13;5.37;;;;;;;23.27;100.00;100289.44;4996355;28;20039;-56
2022/05/23 05:39:18;;;;;;;10.10;6.03;;;;;;;23.45;100.00;100278.81;5004544;28;20051;-57
2022/05/23 05:41:51;;;;;;;11.67;5.90;;;;;;;23.04;100.00;100275.53;4997061;28;20030;-56
2022/05/23 05:44:23;;;;;;;10.90;5.40;;;;;;;23.29;100.00;100276.31;5007704;28;20030;-57
2022/05/23 05:46:55;;;;;;;13.73;5.30;;;;;;;23.34;100.00;100264.53;5005258;28;20056;-57
2022/05/23 05:49:28;;;;;;;11.53;5.60;;;;;;;23.42;100.00;100265.78;5005630;28;20041;-57
2022/05/23 05:52:01;;;;;;;13.20;5.70;;;;;;;23.70;100.00;100257.69;5011632;28;20035;-57
2022/05/23 05:54:48;;;;;;;10.73;5.43;;;;;;;23.66;100.00;100262.94;4996285;28;20042;-58
2022/05/23 05:57:14;;;;;;;11.10;6.18;;;;;;;23.70;100.00;100263.16;5006895;28;20033;-54
2022/05/23 05:59:40;;;;;;;14.30;6.63;;;;;;;23.83;100.00;100261.56;5001036;28;20034;-56
2022/05/23 06:02:07;;;;;;;14.90;5.77;;;;;;;23.80;100.00;100254.81;5000695;28;20094;-57
2022/05/23 06:04:35;;;;;;;17.70;7.07;;;;;;;23.83;100.00;100256.09;5006078;28;20034;-55
2022/05/23 06:13:29;;;;;;;12.80;5.97;;;;;;;24.52;100.00;100244.47;5004140;28;20026;-55
2022/05/23 06:16:05;;;;;;;12.37;6.23;;;;;;;24.12;100.00;100247.72;5001547;28;20326;-54
2022/05/23 06:18:37;;;;;;;14.10;6.10;;;;;;;24.46;100.00;100246.53;4995894;28;20386;-57
2022/05/23 06:21:09;;;;;;;10.33;5.83;;;;;;;24.34;100.00;100240.75;5004074;28;20046;-54
2022/05/23 06:23:42;;;;;;;10.63;6.00;;;;;;;24.35;100.00;100239.63;4985811;28;20034;-53
2022/05/23 06:26:38;;;;;;;11.33;6.30;;;;;;;24.73;100.00;100233.94;5014289;28;20049;-54
2022/05/23 06:29:26;;;;;;;11.60;6.37;;;;;;;24.72;100.00;100236.97;5007918;28;20052;-53
2022/05/23 06:31:53;;;;;;;13.27;6.75;;;;;;;24.97;100.00;100235.66;5007624;28;20049;-55
2022/05/23 06:34:22;;;;;;;11.43;6.23;;;;;;;24.73;100.00;100239.41;4997352;28;20043;-51
2022/05/23 06:36:52;;;;;;;14.57;6.43;;;;;;;24.91;100.00;100234.13;5003556;28;20060;-51
2022/05/23 06:39:18;;;;;;;12.43;6.45;;;;;;;24.85;100.00;100227.97;5005616;28;20086;-56
2022/05/23 06:42:03;;;;;;;14.57;6.63;;;;;;;24.82;100.00;100225.88;5010471;28;20105;-54
2022/05/23 06:44:48;;;;;;;13.80;6.27;;;;;;;24.97;100.00;100230.19;4996149;28;20057;-51
2022/05/23 06:47:33;;;;;;;9.70;5.90;;;;;;;25.05;100.00;100223.19;5006607;28;20034;-51
2022/05/23 06:50:18;;;;;;;13.63;6.20;;;;;;;24.59;100.00;100214.00;5008204;28;20068;-52
2022/05/23 06:53:06;;;;;;;11.67;5.77;;;;;;;25.42;100.00;100215.72;5008021;28;20038;-56
2022/05/23 06:55:41;;;;;;;12.67;7.10;;;;;;;25.51;100.00;100224.03;5006070;28;20031;-55
2022/05/23 06:58:10;;;;;;;14.17;6.33;;;;;;;25.56;100.00;100214.88;5009898;28;20393;-51
2022/05/23 07:00:36;;;;;;;13.73;6.33;;;;;;;25.61;100.00;100212.84;5003061;28;20046;-53
2022/05/23 07:03:09;;;;;;;12.50;6.47;;;;;;;25.23;100.00;100207.69;5006784;28;20035;-56
2022/05/23 07:14:23;;;;;;;53.67;31.03;;;;;;;25.62;100.00;100189.81;4995886;28;20042;-55
2022/05/23 07:16:52;;;;;;;50.63;27.10;;;;;;;25.40;100.00;100184.31;4999922;28;20035;-54
2022/05/23 07:19:29;;;;;;;50.07;28.50;;;;;;;25.61;100.00;100181.91;4995589;28;20031;-56
2022/05/23 07:22:03;;;;;;;64.17;33.70;;;;;;;25.69;100.00;100189.34;4998482;28;20613;-55
2022/05/23 07:24:38;;;;;;;151.10;82.40;;;;;;;25.91;100.00;100183.03;4980715;28;20027;-56
2022/05/23 07:27:07;;;;;;;41.23;22.90;;;;;;;26.13;100.00;100181.34;5002478;28;20031;-53
2022/05/23 07:29:33;;;;;;;57.78;30.63;;;;;;;26.17;100.00;100185.06;5007336;28;20026;-53
2022/05/23 07:32:05;;;;;;;50.63;27.30;;;;;;;25.86;100.00;100194.13;5009350;28;20038;-53
2022/05/23 07:34:33;;;;;;;18.23;11.17;;;;;;;25.86;100.00;100190.56;5003422;28;20041;-51
2022/05/23 07:36:59;;;;;;;30.83;16.48;;;;;;;26.09;100.00;100185.84;4996459;28;20035;-51
2022/05/23 07:39:26;;;;;;;18.23;10.67;;;;;;;25.73;100.00;100186.78;4997246;28;20045;-52
2022/05/23 07:42:01;;;;;;;16.13;8.63;;;;;;;26.04;100.00;100181.28;5000106;28;20026;-50
2022/05/23 07:44:28;;;;;;;26.30;10.20;;;;;;;25.95;100.00;100176.91;5013911;28;20088;-53
2022/05/23 07:46:59;;;;;;;19.50;10.73;;;;;;;26.13;100.00;100170.38;4997743;28;20034;-50
2022/05/23 07:49:26;;;;;;;22.27;9.03;;;;;;;26.42;100.00;100171.75;5007197;28;20065;-55
2022/05/23 07:52:08;;;;;;;15.40;5.30;;;;;;;26.33;100.00;100162.72;5008246;28;20058;-55
2022/05/23 08:00:30;;;;;;;11.53;5.37;;;;;;;26.88;100.00;100166.03;5005343;28;20027;-54
2022/05/23 08:00:37;;;;;;;19.27;6.75;;;;;;;27.03;99.75;100162.81;5018475;28;20056;-52
2022/05/23 08:03:21;;;;;;;;;;;;;;;26.89;100.00;100159.41;5007816;28;20022;-51
2022/05/23 08:06:03;;;;;;;13.83;6.37;;;;;;;26.38;100.00;100159.84;4997873;28;19921;-55
2022/05/23 08:08:29;;;;;;;9.33;5.40;;;;;;;26.56;100.00;100159.88;5013375;28;20049;-55
2022/05/23 08:10:55;;;;;;;11.52;5.38;;;;;;;26.42;100.00;100158.06;5012359;28;20042;-56
2022/05/23 08:13:22;;;;;;;13.87;5.93;;;;;;;26.49;100.00;100166.59;4996645;28;20046;-53
2022/05/23 08:15:47;;;;;;;12.10;5.03;;;;;;;26.10;100.00;100162.78;5003945;28;20106;-55
2022/05/23 08:18:17;;;;;;;11.77;5.30;;;;;;;26.72;100.00;100157.47;5000517;28;20034;-53
2022/05/23 08:20:50;;;;;;;10.77;5.10;;;;;;;26.80;100.00;100156.63;4997619;28;20031;-57
2022/05/23 08:23:21;;;;;;;9.93;5.93;;;;;;;26.49;100.00;100152.09;5011205;28;20026;-53
2022/05/23 08:26:02;;;;;;;13.13;6.27;;;;;;;27.09;99.14;100157.16;5004167;28;20041;-50
2022/05/23 08:28:30;;;;;;;14.87;6.10;;;;;;;26.90;99.05;100139.09;5002825;28;20037;-54
2022/05/23 08:30:57;;;;;;;11.23;5.93;;;;;;;27.16;97.10;100146.47;5010972;28;20047;-55
2022/05/23 08:33:31;;;;;;;13.13;6.47;;;;;;;27.24;94.80;100137.44;5005813;28;20102;-52
2022/05/23 08:36:17;;;;;;;10.53;5.17;;;;;;;27.59;93.51;100139.31;5012275;28;20105;-54
2022/05/23 08:38:43;;;;;;;10.85;4.93;;;;;;;27.57;92.02;100134.16;5006765;28;20035;-54
2022/05/23 08:41:16;;;;;;;13.67;6.57;;;;;;;26.91;95.01;100126.97;4998903;28;20048;-51
2022/05/23 08:43:52;;;;;;;21.67;12.87;;;;;;;26.91;96.33;100130.56;5002604;28;20037;-57
2022/05/23 08:46:38;;;;;;;23.87;12.00;;;;;;;26.74;98.54;100125.81;5003542;28;20064;-56
2022/05/23 08:49:17;;;;;;;43.67;23.57;;;;;;;26.63;100.00;100130.03;5021425;28;20062;-55
2022/05/23 08:52:21;;;;;;;17.27;7.13;;;;;;;26.74;100.00;100127.78;5005552;28;20068;-55
2022/05/23 08:55:09;;;;;;;23.07;10.33;;;;;;;26.86;100.00;100132.63;4995714;28;20039;-55
2022/05/23 08:57:51;;;;;;;10.57;6.47;;;;;;;26.80;100.00;100123.72;4993464;28;20042;-53
2022/05/23 09:00:31;;;;;;;15.37;7.80;;;;;;;26.74;100.00;100105.84;5007215;28;20034;-55
2022/05/23 09:03:06;;;;;;;16.30;7.30;;;;;;;26.85;100.00;100106.34;4996704;28;20102;-52
2022/05/23 09:05:43;;;;;;;15.50;7.57;;;;;;;26.20;100.00;100098.72;5003589;28;20094;-54
2022/05/23 09:08:14;;;;;;;12.77;6.97;;;;;;;25.85;100.00;100104.06;5000108;28;20046;-56
2022/05/23 09:10:48;;;;;;;15.00;7.80;;;;;;;26.38;100.00;100098.72;4997529;28;20035;-57
2022/05/23 09:13:16;;;;;;;18.47;8.53;;;;;;;25.91;100.00;100098.13;5005834;28;20034;-57
2022/05/23 09:15:45;;;;;;;22.80;12.93;;;;;;;26.16;100.00;100101.28;5008582;28;20034;-56
2022/05/23 09:18:17;;;;;;;40.77;22.33;;;;;;;25.71;100.00;100094.00;5005175;28;20107;-55
2022/05/23 09:20:46;;;;;;;30.10;14.17;;;;;;;25.70;100.00;100084.19;5004270;28;20065;-56
2022/05/23 09:23:25;;;;;;;18.67;11.37;;;;;;;26.00;100.00;100080.88;5007728;28;20089;-54
2022/05/23 09:25:53;;;;;;;34.67;19.87;;;;;;;26.13;100.00;100079.97;5007797;28;20034;-53
2022/05/23 09:28:39;;;;;;;25.43;15.60;;;;;;;26.44;100.00;100076.31;5003346;28;20031;-56
2022/05/23 09:31:30;;;;;;;20.27;11.70;;;;;;;26.82;100.00;100071.31;5007532;28;20057;-55
2022/05/23 09:33:57;;;;;;;208.67;127.87;;;;;;;27.27;100.00;100056.38;5001376;28;20060;-55
2022/05/23 09:36:30;;;;;;;180.10;96.30;;;;;;;27.05;100.00;100048.06;5008378;28;20030;-54
2022/05/23 09:38:59;;;;;;;116.33;66.33;;;;;;;27.34;100.00;100046.50;4995273;28;20042;-57
2022/05/23 09:50:08;;;;;;;177.47;101.63;;;;;;;27.86;100.00;100025.44;5002397;28;20023;-56
2022/05/23 09:52:46;;;;;;;24.47;11.60;;;;;;;28.07;100.00;100024.66;5007394;28;20051;-58
2022/05/23 09:55:28;;;;;;;18.57;8.83;;;;;;;27.81;100.00;100019.34;5003016;28;20058;-57
2022/05/23 09:57:57;;;;;;;16.03;8.17;;;;;;;27.53;100.00;100017.06;5009076;28;20030;-57
2022/05/23 10:00:23;;;;;;;17.00;7.90;;;;;;;27.34;100.00;100015.53;5008451;28;20068;-57
2022/05/23 10:02:51;;;;;;;;;;;;;;;27.01;100.00;100008.69;5009307;28;20485;-58
2022/05/23 10:05:37;;;;;;;18.50;9.57;;;;;;;27.06;100.00;100002.22;5011107;28;19921;-58
2022/05/23 10:08:28;;;;;;;13.43;7.23;;;;;;;26.91;100.00;100004.38;5003703;28;20038;-58
2022/05/23 10:10:58;;;;;;;11.30;7.13;;;;;;;26.84;100.00;99992.25;5006004;28;20068;-58
2022/05/23 10:13:37;;;;;;;14.50;7.60;;;;;;;27.25;100.00;99990.03;4998620;28;20026;-56
2022/05/23 10:16:09;;;;;;;12.50;8.37;;;;;;;27.47;100.00;99986.22;5010955;28;20073;-57
2022/05/23 10:18:43;;;;;;;25.10;15.00;;;;;;;27.56;100.00;99975.22;5011858;28;20034;-59
2022/05/23 10:21:38;;;;;;;20.37;9.60;;;;;;;27.81;100.00;99967.94;5009264;28;20038;-57
2022/05/23 10:24:09;;;;;;;15.40;7.47;;;;;;;28.06;100.00;99970.84;5010076;28;20090;-58
2022/05/23 10:26:48;;;;;;;14.77;9.23;;;;;;;28.27;92.97;99967.31;5011335;28;20110;-57
2022/05/23 10:29:23;;;;;;;20.77;9.93;;;;;;;28.84;85.96;99965.00;5002524;28;20030;-59
2022/05/23 10:32:03;;;;;;;12.23;7.27;;;;;;;29.24;84.69;99956.06;5026867;28;20077;-59
2022/05/23 10:34:44;;;;;;;16.00;8.93;;;;;;;29.53;82.00;99962.53;5030415;28;20117;-59
2022/05/23 10:37:18;;;;;;;19.33;10.80;;;;;;;29.90;78.53;99970.72;5030191;28;20155;-57
2022/05/23 10:42:48;;;;;;;16.30;9.77;;;;;;;30.12;77.47;99943.00;5030355;28;20034;-59
2022/05/23 10:45:28;;;;;;;12.23;7.67;;;;;;;30.45;74.41;99948.25;5024461;28;20050;-57
2022/05/23 10:48:07;;;;;;;16.53;7.07;;;;;;;30.92;68.94;99945.94;5019715;28;20057;-58
2022/05/23 10:50:53;;;;;;;11.68;6.93;;;;;;;31.58;66.51;99946.28;5030170;28;20060;-57
2022/05/23 10:53:53;;;;;;;12.93;6.57;;;;;;;31.81;64.09;99959.44;5030579;28;20097;-59
2022/05/23 10:56:40;;;;;;;14.05;6.13;;;;;;;32.35;62.13;99959.78;5030385;28;20053;-59
2022/05/23 10:59:12;;;;;;;15.63;7.25;;;;;;;32.45;58.05;99953.63;5012272;28;20060;-58
2022/05/23 11:02:22;;;;;;;19.05;11.15;;;;;;;34.22;51.67;99954.72;5018003;28;20026;-56
2022/05/23 11:05:27;;;;;;;17.50;7.38;;;;;;;34.69;45.98;99966.34;5000205;28;20050;-58
2022/05/23 11:08:14;;;;;;;16.90;9.40;;;;;;;35.57;43.69;99963.09;5015086;28;20026;-59
2022/05/23 11:10:54;;;;;;;22.85;12.35;;;;;;;36.72;39.66;99956.34;5026390;28;20053;-58
2022/05/23 11:13:49;;;;;;;11.93;6.95;;;;;;;36.80;37.94;99956.31;5011872;28;20079;-57
2022/05/23 11:16:29;;;;;;;13.02;7.32;;;;;;;37.45;38.07;99953.50;5022597;28;20114;-57
2022/05/23 11:19:23;;;;;;;15.00;6.88;;;;;;;38.25;34.90;99939.25;5026863;28;20105;-59
2022/05/23 11:21:58;;;;;;;11.73;6.40;;;;;;;38.70;34.42;99938.56;5028247;28;20098;-58
2022/05/23 11:24:34;;;;;;;10.25;5.05;;;;;;;38.59;34.38;99933.84;5031248;28;20043;-58
2022/05/23 11:35:48;;;;;;;10.20;5.68;;;;;;;39.22;31.42;99895.78;5030379;28;20038;-58
2022/05/23 11:38:17;;;;;;;7.13;4.68;;;;;;;38.02;32.45;99887.56;5029737;28;20033;-58
2022/05/23 11:40:51;;;;;;;8.07;4.85;;;;;;;36.66;35.40;99879.94;5031786;28;20041;-58
2022/05/23 11:43:18;;;;;;;12.98;5.38;;;;;;;36.46;37.18;99865.59;5032231;28;20034;-59
2022/05/23 11:45:59;;;;;;;10.48;5.90;;;;;;;35.89;38.04;99850.41;5027802;28;20097;-59
2022/05/23 11:48:40;;;;;;;12.65;5.55;;;;;;;35.61;39.36;99843.53;5031326;28;20106;-56
2022/05/23 11:51:23;;;;;;;12.65;5.20;;;;;;;36.03;38.62;99841.31;5029973;28;20057;-57
2022/05/23 11:54:00;;;;;;;13.50;5.60;;;;;;;35.69;40.30;99822.13;5032835;28;20057;-58
2022/05/23 11:56:40;;;;;;;15.75;7.15;;;;;;;35.14;42.26;99819.09;5032989;28;20060;-58
2022/05/23 11:59:12;;;;;;;13.48;8.93;;;;;;;34.32;44.09;99808.97;5033008;28;20045;-57
2022/05/23 12:01:39;;;;;;;21.45;11.38;;;;;;;34.36;43.80;99804.25;5033482;28;20038;-58
2022/05/23 12:04:05;;;;;;;14.77;6.85;;;;;;;34.05;43.64;99798.03;5033410;28;20059;-59
2022/05/23 12:06:32;;;;;;;13.07;4.95;;;;;;;33.83;44.68;99795.03;5033199;28;20042;-59
2022/05/23 12:08:57;;;;;;;10.05;6.32;;;;;;;33.39;47.60;99792.91;5032429;28;20038;-57
2022/05/23 12:11:31;;;;;;;14.80;8.85;;;;;;;32.85;49.57;99793.78;5028783;28;20045;-56
2022/05/23 12:14:12;;;;;;;10.32;5.90;;;;;;;32.49;51.55;99775.84;5026545;28;20045;-57
2022/05/23 12:17:05;;;;;;;15.50;9.40;;;;;;;32.15;54.75;99782.78;5033126;28;20034;-58
2022/05/23 12:19:38;;;;;;;19.92;8.40;;;;;;;32.36;55.51;99764.97;5027403;28;20124;-58
2022/05/23 12:22:18;;;;;;;18.23;6.40;;;;;;;32.24;56.35;99760.41;5014354;28;20043;-59
2022/05/23 12:25:03;;;;;;;13.75;6.88;;;;;;;31.53;58.92;99758.72;5027675;28;20049;-59
2022/05/23 12:27:38;;;;;;;13.35;6.00;;;;;;;31.89;59.03;99762.19;5032568;28;20025;-57
2022/05/23 12:30:17;;;;;;;14.45;6.43;;;;;;;31.33;59.62;99764.25;5014979;28;20097;-57
2022/05/23 12:32:45;;;;;;;13.55;6.72;;;;;;;31.23;62.40;99759.31;5020141;28;20067;-58
2022/05/23 12:35:14;;;;;;;8.93;6.20;;;;;;;31.69;60.69;99758.63;5022285;28;20042;-59
2022/05/23 12:37:49;;;;;;;14.15;6.50;;;;;;;31.39;64.54;99758.47;5020831;28;20045;-58
2022/05/23 12:40:29;;;;;;;16.10;6.50;;;;;;;31.14;66.88;99747.66;5019985;28;20045;-58
2022/05/23 12:43:01;;;;;;;25.00;7.45;;;;;;;31.21;66.35;99742.31;5032187;28;20116;-55